Time;durP1;ratioP1;P1;durP2;ratioP2;P2;SDS_P1;SDS_P2;PMS_P1;PMS_P2;Temp;Humidity;BMP_temperature;BMP_pressure;BME280_temperature;BME280_humidity;BME280_pressure;Samples;Min_cycle;Max_cycle;Signal;HPM_P1;HPM_P2
2022/12/23 00:02:08;;;;;;;5.15;2.95;;;;;;;16.46;67.71;100373.19;6276066;22;20049;-75
2022/12/23 00:04:33;;;;;;;5.55;2.88;;;;;;;16.44;67.50;100378.41;6275922;22;20008;-75
2022/12/23 00:06:59;;;;;;;6.13;2.75;;;;;;;16.45;67.63;100384.47;6250448;22;20022;-76
2022/12/23 00:09:24;;;;;;;8.32;2.80;;;;;;;16.45;68.09;100389.66;6250409;22;20007;-76
2022/12/23 00:17:22;;;;;;;;;;;;;;;16.44;67.50;100391.41;6255054;22;20037;-75
2022/12/23 00:19:47;;;;;;;3.83;2.20;;;;;;;16.45;68.24;100393.09;6250207;22;19938;-75
2022/12/23 00:22:12;;;;;;;6.70;3.00;;;;;;;16.46;69.12;100393.94;6250126;22;20008;-75
2022/12/23 00:24:38;;;;;;;4.80;2.60;;;;;;;16.45;68.41;100398.28;6250286;22;20421;-76
2022/12/23 00:27:03;;;;;;;7.00;2.70;;;;;;;16.45;67.99;100394.84;6250342;22;20301;-75
2022/12/23 00:29:28;;;;;;;6.35;2.72;;;;;;;16.45;68.56;100398.28;6225305;22;20003;-75
2022/12/23 00:31:54;;;;;;;5.30;2.35;;;;;;;16.44;67.99;100399.19;6250179;22;20045;-76
2022/12/23 00:34:19;;;;;;;4.50;2.67;;;;;;;16.45;67.57;100400.03;6250029;22;20016;-76
2022/12/23 00:36:44;;;;;;;5.30;2.80;;;;;;;16.45;67.82;100402.63;6249933;22;20046;-76
2022/12/23 00:44:41;;;;;;;;;;;;;;;16.45;67.65;100400.03;6277721;22;20010;-77
2022/12/23 00:47:06;;;;;;;4.75;2.53;;;;;;;16.44;66.95;100403.53;6275723;22;19907;-75
2022/12/23 00:49:49;;;;;;;3.88;2.10;;;;;;;16.46;68.43;100412.13;6250028;22;20034;-76
2022/12/23 00:52:15;;;;;;;4.18;2.30;;;;;;;16.45;67.38;100410.44;6257614;22;19999;-76
2022/12/23 00:54:41;;;;;;;4.05;2.42;;;;;;;16.44;67.76;100408.72;6250166;22;20007;-75
2022/12/23 00:57:06;;;;;;;5.50;2.30;;;;;;;16.44;68.32;100416.50;6249878;22;20039;-75
2022/12/23 00:59:32;;;;;;;3.50;1.98;;;;;;;16.44;67.23;100422.56;6224514;22;20011;-74
2022/12/23 01:07:26;;;;;;;3.53;2.00;;;;;;;16.45;67.32;100423.41;6254328;22;20019;-75
2022/12/23 01:09:51;;;;;;;3.58;2.10;;;;;;;16.44;67.17;100426.91;6275723;22;20007;-77
2022/12/23 01:12:17;;;;;;;3.88;2.20;;;;;;;16.45;66.95;100423.41;6250059;22;19999;-76
2022/12/23 01:14:42;;;;;;;3.55;2.05;;;;;;;16.45;67.78;100418.22;6249956;22;20014;-76
2022/12/23 01:17:08;;;;;;;3.30;2.00;;;;;;;16.44;68.16;100427.75;6249631;22;20335;-76
2022/12/23 01:19:33;;;;;;;3.00;2.17;;;;;;;16.44;66.99;100424.31;6275537;22;20014;-75
2022/12/23 01:21:59;;;;;;;4.25;2.10;;;;;;;16.44;66.72;100425.16;6250168;22;20012;-75
2022/12/23 01:24:31;;;;;;;4.72;2.00;;;;;;;16.44;66.66;100434.69;6275457;22;20018;-75
2022/12/23 01:26:57;;;;;;;3.90;2.10;;;;;;;16.45;67.39;100445.03;6275485;22;20003;-75
2022/12/23 01:29:23;;;;;;;4.13;2.13;;;;;;;16.45;67.11;100446.78;6276926;22;20004;-74
2022/12/23 01:31:48;;;;;;;4.13;2.28;;;;;;;16.44;67.23;100445.94;6275805;22;20000;-75
2022/12/23 01:34:13;;;;;;;3.67;1.85;;;;;;;16.45;67.38;100447.63;6275306;22;20091;-75
2022/12/23 01:36:39;;;;;;;4.18;1.77;;;;;;;16.46;67.32;100453.69;6249763;22;20018;-75
2022/12/23 01:39:04;;;;;;;4.40;2.20;;;;;;;16.45;66.18;100458.03;6249640;22;20011;-75
2022/12/23 01:44:47;;;;;;;3.28;1.90;;;;;;;16.44;67.08;100464.13;6276898;22;20053;-75
2022/12/23 01:47:19;;;;;;;2.72;1.80;;;;;;;16.45;67.09;100470.16;6275244;22;20011;-75
2022/12/23 01:49:46;;;;;;;3.45;1.90;;;;;;;16.45;66.65;100478.81;6275248;22;20089;-76
2022/12/23 01:52:12;;;;;;;3.33;1.83;;;;;;;16.45;66.10;100488.34;6249687;22;20000;-75
2022/12/23 01:54:38;;;;;;;3.15;2.00;;;;;;;16.45;66.45;100490.94;6275348;22;20046;-75
2022/12/23 01:57:04;;;;;;;3.40;1.70;;;;;;;16.44;66.39;100497.03;6276735;22;20484;-76
2022/12/23 02:04:58;;;;;;;3.42;1.88;;;;;;;16.46;67.43;100510.81;6275801;22;19914;-75
2022/12/23 02:10:09;;;;;;;2.92;1.75;;;;;;;16.45;66.32;100509.13;6277494;22;20095;-76
2022/12/23 02:12:47;;;;;;;2.55;1.48;;;;;;;16.44;67.02;100508.28;6251565;22;20428;-75
2022/12/23 02:18:15;;;;;;;;;;;;;;;16.44;66.15;100517.81;6301090;22;20347;-76
2022/12/23 02:21:05;;;;;;;3.10;1.50;;;;;;;16.44;65.99;100516.06;6282136;22;19910;-77
2022/12/23 02:24:01;;;;;;;2.92;1.55;;;;;;;16.45;66.46;100519.50;6281986;22;20056;-75
2022/12/23 02:26:39;;;;;;;2.35;1.65;;;;;;;16.45;66.03;100527.31;6282105;22;20007;-77
2022/12/23 02:29:10;;;;;;;2.97;1.88;;;;;;;16.44;66.52;100523.84;6309433;22;20331;-77
2022/12/23 02:32:10;;;;;;;3.03;1.80;;;;;;;16.45;67.45;100524.69;6281907;22;20411;-75
2022/12/23 02:34:57;;;;;;;3.90;1.70;;;;;;;16.45;66.00;100529.91;6281837;22;20009;-74
2022/12/23 02:37:28;;;;;;;2.38;1.52;;;;;;;16.44;67.12;100530.78;6281916;22;20003;-75
2022/12/23 02:40:09;;;;;;;3.75;1.80;;;;;;;16.45;65.85;100537.69;6281863;22;20002;-75
2022/12/23 02:42:42;;;;;;;2.22;1.60;;;;;;;16.45;65.96;100540.28;6281764;22;20009;-75
2022/12/23 02:45:21;;;;;;;2.45;1.70;;;;;;;16.47;67.33;100538.53;6281799;22;20011;-75
2022/12/23 02:47:55;;;;;;;2.40;1.52;;;;;;;16.46;66.13;100542.00;6281777;22;20074;-75
2022/12/23 02:50:28;;;;;;;2.70;1.70;;;;;;;16.46;66.83;100552.38;6309211;22;20427;-76
2022/12/23 02:52:57;;;;;;;2.60;1.60;;;;;;;16.45;65.41;100545.47;6309260;22;20041;-75
2022/12/23 02:55:30;;;;;;;2.20;1.52;;;;;;;16.45;65.71;100548.94;6281810;22;20006;-75
2022/12/23 02:57:56;;;;;;;2.72;1.70;;;;;;;16.46;66.30;100554.97;6281805;22;20003;-75
2022/12/23 03:00:22;;;;;;;2.45;1.52;;;;;;;16.45;65.47;100553.28;6309196;22;20010;-75
2022/12/23 03:02:48;;;;;;;3.50;1.50;;;;;;;16.44;66.18;100549.81;6256322;22;20010;-75
2022/12/23 03:05:37;;;;;;;2.67;1.60;;;;;;;16.45;66.04;100548.94;6256179;22;20030;-76
2022/12/23 03:08:06;;;;;;;2.35;1.50;;;;;;;16.46;66.73;100554.97;6281544;22;20052;-75
2022/12/23 03:10:56;;;;;;;2.38;1.60;;;;;;;16.46;65.97;100549.78;6281604;22;20025;-75
2022/12/23 03:13:31;;;;;;;2.38;1.60;;;;;;;16.47;67.34;100546.34;6281590;22;20035;-76
2022/12/23 03:16:14;;;;;;;2.92;1.40;;;;;;;16.45;66.03;100543.75;6309458;22;20007;-74
2022/12/23 03:18:51;;;;;;;2.13;1.33;;;;;;;16.44;66.37;100544.63;6281620;22;20040;-75
2022/12/23 03:21:44;;;;;;;2.30;1.50;;;;;;;16.45;66.30;100542.88;6309045;22;20057;-76
2022/12/23 03:24:42;;;;;;;2.78;1.45;;;;;;;16.46;66.35;100547.19;6281557;22;20216;-76
2022/12/23 03:27:45;;;;;;;2.60;1.30;;;;;;;16.45;65.47;100541.13;6224596;22;20011;-75
2022/12/23 03:30:17;;;;;;;2.13;1.55;;;;;;;16.46;66.38;100542.00;6248792;22;20007;-75
2022/12/23 03:32:48;;;;;;;2.55;1.60;;;;;;;16.45;66.35;100541.13;6309258;22;19995;-75
2022/12/23 03:35:18;;;;;;;2.10;1.50;;;;;;;16.45;66.52;100537.69;6281524;22;20086;-76
2022/12/23 03:37:49;;;;;;;2.33;1.42;;;;;;;16.44;66.03;100544.63;6281591;22;20039;-75
2022/12/23 03:40:21;;;;;;;3.00;1.42;;;;;;;16.44;65.96;100544.63;6281595;22;20010;-75
2022/12/23 03:42:51;;;;;;;1.77;1.20;;;;;;;16.45;66.44;100546.34;6281451;22;19999;-76
2022/12/23 03:45:23;;;;;;;1.92;1.13;;;;;;;16.43;66.43;100542.88;6256699;22;20339;-74
2022/12/23 03:47:57;;;;;;;1.85;1.30;;;;;;;16.42;65.61;100546.38;6308919;22;20135;-76
2022/12/23 03:50:23;;;;;;;2.70;1.30;;;;;;;16.44;65.85;100543.78;6281499;22;20500;-76
2022/12/23 03:53:01;;;;;;;1.70;1.20;;;;;;;16.44;66.21;100552.41;6281091;22;20081;-76
2022/12/23 03:55:35;;;;;;;1.52;1.20;;;;;;;16.43;66.43;100557.63;6308534;22;20094;-77
2022/12/23 03:58:28;;;;;;;1.90;1.17;;;;;;;16.43;65.56;100571.47;6308616;22;20037;-75
2022/12/23 04:01:31;;;;;;;2.03;1.30;;;;;;;16.42;65.70;100577.53;6308587;22;20006;-76
2022/12/23 04:04:02;;;;;;;1.48;0.90;;;;;;;16.42;65.85;100580.16;6248268;22;20007;-75
2022/12/23 04:06:34;;;;;;;1.88;1.10;;;;;;;16.44;65.77;100587.94;6281055;22;20003;-76
2022/12/23 04:09:02;;;;;;;1.60;1.13;;;;;;;16.41;66.05;100591.38;6281036;22;20030;-75
2022/12/23 04:11:28;;;;;;;1.50;1.10;;;;;;;16.42;65.48;100594.88;6281112;22;20011;-77
2022/12/23 04:13:54;;;;;;;1.60;1.10;;;;;;;16.44;66.17;100593.97;6281083;22;20014;-75
2022/12/23 04:16:19;;;;;;;2.30;1.10;;;;;;;16.43;65.38;100586.19;6255182;22;20015;-75
2022/12/23 04:18:45;;;;;;;2.28;1.08;;;;;;;16.44;66.83;100598.31;6255352;22;20419;-76
2022/12/23 04:21:10;;;;;;;1.30;0.90;;;;;;;16.45;65.41;100600.03;6255681;22;20004;-75
2022/12/23 04:23:35;;;;;;;1.38;0.90;;;;;;;16.43;65.91;100596.56;6255437;22;20061;-75
2022/12/23 04:26:01;;;;;;;1.90;1.10;;;;;;;16.42;65.04;100598.31;6255347;22;19999;-75
2022/12/23 04:28:26;;;;;;;1.63;1.10;;;;;;;16.42;65.70;100600.06;6229906;22;20052;-75
2022/12/23 04:30:51;;;;;;;1.30;0.82;;;;;;;16.42;66.00;100597.47;6255012;22;20092;-75
2022/12/23 04:33:17;;;;;;;1.67;0.93;;;;;;;16.41;65.51;100585.34;6255464;22;20003;-76
2022/12/23 04:35:42;;;;;;;2.10;1.20;;;;;;;16.41;65.17;100585.34;6255367;22;20010;-75
2022/12/23 04:38:07;;;;;;;2.22;0.93;;;;;;;16.40;65.46;100578.44;6255317;22;20091;-77
2022/12/23 04:40:33;;;;;;;1.70;1.00;;;;;;;16.38;65.67;100577.59;6255417;22;20011;-76
2022/12/23 04:42:58;;;;;;;1.10;0.70;;;;;;;16.39;65.10;100585.34;6281027;22;20473;-75
2022/12/23 04:45:23;;;;;;;1.15;0.70;;;;;;;16.38;65.34;100581.03;6255659;22;20014;-74
2022/12/23 04:47:49;;;;;;;1.83;1.10;;;;;;;16.40;65.08;100573.25;6256129;22;20140;-74
2022/12/23 04:50:15;;;;;;;0.90;0.70;;;;;;;16.38;65.01;100569.78;6255344;22;20011;-74
2022/12/23 04:52:42;;;;;;;1.30;1.00;;;;;;;16.39;65.60;100561.13;6281175;22;20007;-74
2022/12/23 04:55:08;;;;;;;1.55;0.85;;;;;;;16.40;64.83;100566.31;6280989;22;20466;-75
2022/12/23 04:57:33;;;;;;;1.52;0.82;;;;;;;16.39;65.05;100569.75;6281195;22;20014;-74
2022/12/23 04:59:59;;;;;;;1.38;0.90;;;;;;;16.38;65.12;100575.84;6280876;22;20392;-75
2022/12/23 05:02:24;;;;;;;2.47;0.70;;;;;;;16.38;64.92;100569.78;6255332;22;20019;-77
2022/12/23 05:04:50;;;;;;;1.42;0.85;;;;;;;16.37;64.89;100573.25;6255790;22;20011;-75
2022/12/23 05:07:15;;;;;;;1.70;0.90;;;;;;;16.38;65.38;100578.44;6256028;22;20458;-76
2022/12/23 05:09:40;;;;;;;1.30;0.80;;;;;;;16.37;64.71;100579.31;6229873;22;20061;-75
2022/12/23 05:12:06;;;;;;;1.30;1.00;;;;;;;16.38;64.84;100575.84;6281379;22;20074;-75
2022/12/23 05:14:31;;;;;;;1.20;0.80;;;;;;;16.37;64.96;100575.84;6308383;22;20069;-74
2022/12/23 05:16:56;;;;;;;1.10;0.75;;;;;;;16.38;65.22;100577.59;6255273;22;20039;-75
2022/12/23 05:19:22;;;;;;;1.13;0.80;;;;;;;16.38;65.04;100577.59;6230081;22;20428;-75
2022/12/23 05:21:47;;;;;;;1.30;0.80;;;;;;;16.38;64.65;100580.19;6280816;22;20149;-75
2022/12/23 05:24:12;;;;;;;1.05;0.75;;;;;;;16.38;64.55;100583.63;6229920;22;20017;-76
2022/12/23 05:26:38;;;;;;;1.05;0.70;;;;;;;16.37;64.72;100587.09;6255623;22;20007;-75
2022/12/23 05:29:04;;;;;;;1.00;0.77;;;;;;;16.37;64.54;100597.47;6280699;22;20476;-75
2022/12/23 05:31:30;;;;;;;1.50;0.77;;;;;;;16.37;64.45;100592.28;6255810;22;20003;-76
2022/12/23 05:33:56;;;;;;;0.90;0.70;;;;;;;16.38;64.28;100596.63;6280763;22;20003;-76
2022/12/23 05:36:21;;;;;;;0.70;0.60;;;;;;;16.39;64.69;100594.88;6307929;22;20011;-75
2022/12/23 05:38:47;;;;;;;1.00;0.70;;;;;;;16.38;64.61;100603.56;6280739;22;20014;-75
2022/12/23 05:41:13;;;;;;;0.75;0.70;;;;;;;16.38;64.19;100600.97;6255336;22;20010;-74
2022/12/23 05:43:38;;;;;;;1.48;0.80;;;;;;;16.39;64.19;100607.88;6255826;22;20011;-75
2022/12/23 05:46:03;;;;;;;1.10;0.80;;;;;;;16.38;64.46;100606.16;6257431;22;20011;-76
2022/12/23 05:48:29;;;;;;;1.50;0.90;;;;;;;16.38;64.11;100601.81;6257280;22;20086;-76
2022/12/23 05:50:54;;;;;;;1.40;1.00;;;;;;;16.40;64.63;100601.81;6257195;22;20057;-75
2022/12/23 05:53:20;;;;;;;1.05;0.80;;;;;;;16.39;64.82;100602.66;6257468;22;20006;-75
2022/12/23 05:55:45;;;;;;;1.38;0.90;;;;;;;16.38;64.30;100598.38;6231936;22;20035;-75
2022/12/23 05:58:11;;;;;;;1.65;1.00;;;;;;;16.37;64.06;100594.88;6256878;22;20086;-75
2022/12/23 06:00:36;;;;;;;1.02;0.73;;;;;;;16.37;63.89;100592.28;6282807;22;20415;-74
2022/12/23 06:03:02;;;;;;;3.42;0.88;;;;;;;16.38;64.10;100591.44;6257181;22;20034;-76
2022/12/23 06:05:27;;;;;;;0.88;0.63;;;;;;;16.38;64.36;100596.63;6257167;22;20014;-75
2022/12/23 06:07:53;;;;;;;1.15;0.82;;;;;;;16.36;63.83;100580.19;6257727;22;20065;-76
2022/12/23 06:10:18;;;;;;;1.65;0.90;;;;;;;16.37;63.98;100586.22;6282392;22;20003;-77
2022/12/23 06:12:44;;;;;;;1.88;0.90;;;;;;;16.38;64.42;100588.84;6282533;22;20328;-77
2022/12/23 06:15:10;;;;;;;1.65;1.02;;;;;;;16.38;63.76;100578.44;6256683;22;20025;-75
2022/12/23 06:17:36;;;;;;;1.40;1.00;;;;;;;16.37;63.73;100576.69;6282061;22;20090;-75
2022/12/23 06:20:02;;;;;;;2.67;0.80;;;;;;;16.37;64.16;100571.50;6257009;22;20451;-75
2022/12/23 06:22:27;;;;;;;1.20;0.90;;;;;;;16.38;63.82;100577.59;6256991;22;20007;-76
2022/12/23 06:24:52;;;;;;;0.95;0.70;;;;;;;16.40;64.04;100586.22;6256835;22;20030;-76
2022/12/23 06:27:18;;;;;;;1.05;0.75;;;;;;;16.40;64.29;100584.47;6256981;22;20336;-75
2022/12/23 06:29:43;;;;;;;0.75;0.70;;;;;;;16.41;64.24;100588.78;6256945;22;20034;-74
2022/12/23 06:32:09;;;;;;;1.10;0.60;;;;;;;16.40;63.43;100587.09;6282254;22;20332;-76
2022/12/23 06:34:34;;;;;;;1.27;0.80;;;;;;;16.42;63.53;100589.69;6256610;22;20007;-76
2022/12/23 06:36:59;;;;;;;0.77;0.60;;;;;;;16.42;64.13;100595.72;6282169;22;20039;-76
2022/12/23 06:39:25;;;;;;;0.90;0.70;;;;;;;16.44;63.41;100596.56;6282186;22;20006;-76
2022/12/23 06:41:51;;;;;;;0.60;0.60;;;;;;;16.44;64.38;100595.72;6282289;22;20078;-75
2022/12/23 06:44:17;;;;;;;1.02;0.70;;;;;;;16.46;63.54;100604.31;6256710;22;20340;-75
2022/12/23 06:46:42;;;;;;;1.23;0.73;;;;;;;16.46;64.55;100599.13;6309947;22;20007;-75
2022/12/23 06:49:07;;;;;;;1.05;0.70;;;;;;;16.47;63.53;100602.63;6256634;22;20018;-76
2022/12/23 06:51:33;;;;;;;0.88;0.60;;;;;;;16.45;63.94;100589.63;6256673;22;20034;-76
2022/12/23 06:53:59;;;;;;;0.60;0.60;;;;;;;16.45;63.52;100592.22;6256309;22;20060;-75
2022/12/23 06:56:24;;;;;;;1.10;0.70;;;;;;;16.47;63.29;100584.44;6256447;22;20441;-74
2022/12/23 06:58:51;;;;;;;1.90;0.60;;;;;;;16.48;64.20;100592.19;6281997;22;20011;-75
2022/12/23 07:01:17;;;;;;;1.65;0.70;;;;;;;16.51;64.58;100599.97;6282295;22;20047;-76
2022/12/23 07:03:42;;;;;;;6.65;1.60;;;;;;;16.49;64.03;100608.66;6281663;22;20004;-76
2022/12/23 07:06:08;;;;;;;8.13;2.00;;;;;;;16.71;63.18;100612.78;6256248;22;20011;-77
2022/12/23 07:08:33;;;;;;;12.73;2.78;;;;;;;16.92;62.51;100618.66;6282234;22;20007;-75
2022/12/23 07:11:00;;;;;;;11.23;2.63;;;;;;;16.95;63.18;100614.31;6256492;22;20367;-75
2022/12/23 07:13:26;;;;;;;11.95;2.60;;;;;;;16.96;63.04;100616.03;6282248;22;20040;-76
2022/12/23 07:15:51;;;;;;;6.50;2.40;;;;;;;16.96;63.61;100621.25;6256417;22;20312;-77
2022/12/23 07:18:17;;;;;;;8.93;2.40;;;;;;;16.97;63.22;100628.16;6256074;22;20022;-76
2022/12/23 07:20:42;;;;;;;5.70;2.17;;;;;;;16.96;63.71;100623.84;6256323;22;20009;-75
2022/12/23 07:23:08;;;;;;;6.20;2.20;;;;;;;16.96;63.45;100629.03;6256269;22;20503;-75
2022/12/23 07:25:33;;;;;;;6.10;1.80;;;;;;;16.98;63.28;100632.47;6256050;22;20082;-76
2022/12/23 07:27:58;;;;;;;6.22;2.10;;;;;;;16.99;63.88;100631.59;6281733;22;20500;-76
2022/12/23 07:30:24;;;;;;;6.25;1.90;;;;;;;17.00;62.91;100633.31;6255986;22;20014;-76
2022/12/23 07:32:50;;;;;;;6.78;1.90;;;;;;;17.00;63.40;100622.91;6256349;22;20026;-74
2022/12/23 07:35:16;;;;;;;4.55;1.90;;;;;;;17.00;63.15;100628.09;6255987;22;20007;-78
2022/12/23 07:37:42;;;;;;;4.18;2.20;;;;;;;17.01;62.57;100627.25;6281701;22;20060;-74
2022/12/23 07:40:08;;;;;;;3.75;1.63;;;;;;;17.01;62.50;100609.03;6281848;22;20007;-75
2022/12/23 07:42:33;;;;;;;4.13;1.80;;;;;;;17.03;62.96;100603.84;6256020;22;20003;-75
2022/12/23 07:44:59;;;;;;;5.53;1.90;;;;;;;17.03;63.22;100596.91;6309039;22;20086;-77
2022/12/23 07:47:24;;;;;;;4.40;2.03;;;;;;;17.03;63.46;100596.91;6256065;22;20368;-77
2022/12/23 07:49:50;;;;;;;6.60;1.90;;;;;;;17.04;62.93;100592.53;6255908;22;20031;-76
2022/12/23 07:52:15;;;;;;;4.60;1.90;;;;;;;17.05;62.64;100586.50;6256376;22;19996;-75
2022/12/23 07:54:41;;;;;;;3.13;1.67;;;;;;;17.05;62.84;100584.75;6256132;22;20007;-75
2022/12/23 07:57:06;;;;;;;3.67;1.83;;;;;;;17.04;63.16;100583.00;6282154;22;20071;-75
2022/12/23 07:59:31;;;;;;;4.53;2.00;;;;;;;17.05;63.19;100583.88;6281954;22;20003;-76
2022/12/23 08:01:57;;;;;;;5.40;2.17;;;;;;;17.04;62.95;100576.94;6255676;22;20003;-76
2022/12/23 08:04:22;;;;;;;3.42;1.95;;;;;;;17.03;62.94;100583.03;6255674;22;20080;-76
2022/12/23 08:06:48;;;;;;;2.95;1.95;;;;;;;17.01;62.67;100579.59;6280786;22;20053;-76
2022/12/23 08:09:13;;;;;;;3.63;1.90;;;;;;;17.01;62.74;100582.19;6255463;22;19999;-76
2022/12/23 08:11:39;;;;;;;3.58;1.92;;;;;;;17.01;62.79;100574.41;6281153;22;19995;-76
2022/12/23 08:14:04;;;;;;;3.13;1.73;;;;;;;17.00;62.91;100570.06;6281039;22;20003;-76
2022/12/23 08:16:29;;;;;;;4.70;2.15;;;;;;;16.99;62.91;100568.34;6280940;22;20015;-76
2022/12/23 08:18:55;;;;;;;4.95;2.95;;;;;;;16.99;62.94;100573.56;6255389;22;20098;-77
2022/12/23 08:21:20;;;;;;;3.15;2.00;;;;;;;16.98;62.75;100570.06;6255626;22;20428;-79
2022/12/23 08:23:46;;;;;;;3.63;1.92;;;;;;;16.99;62.74;100568.34;6230099;22;20450;-75
2022/12/23 08:26:14;;;;;;;3.90;1.80;;;;;;;16.98;62.43;100564.88;6255449;22;20090;-75
2022/12/23 08:28:41;;;;;;;3.83;2.05;;;;;;;16.99;62.60;100568.34;6281287;22;20316;-76
2022/12/23 08:31:11;;;;;;;2.90;1.90;;;;;;;16.99;62.51;100560.56;6281282;22;20003;-76
2022/12/23 08:33:38;;;;;;;3.90;2.20;;;;;;;16.98;62.18;100554.47;6281011;22;20442;-76
2022/12/23 08:36:05;;;;;;;5.15;2.05;;;;;;;17.00;62.51;100550.13;6281055;22;20003;-75
2022/12/23 08:38:31;;;;;;;3.53;1.90;;;;;;;17.03;63.30;100549.25;6281332;22;20011;-80
2022/12/23 08:40:57;;;;;;;4.60;2.10;;;;;;;17.03;63.14;100546.66;6281114;22;20021;-77
2022/12/23 08:43:22;;;;;;;8.32;2.17;;;;;;;17.04;63.01;100544.00;6280713;22;20003;-75
2022/12/23 08:45:48;;;;;;;5.32;1.95;;;;;;;17.07;62.70;100540.50;6280700;22;20068;-75
2022/12/23 08:48:13;;;;;;;6.28;1.98;;;;;;;17.06;62.60;100539.66;6280827;22;20003;-75
2022/12/23 08:50:41;;;;;;;6.03;1.98;;;;;;;17.06;63.17;100534.44;6308175;22;20010;-76
2022/12/23 08:53:07;;;;;;;3.08;1.80;;;;;;;17.09;62.34;100538.75;6308144;22;20006;-77
2022/12/23 08:55:40;;;;;;;4.15;1.70;;;;;;;17.08;63.31;100539.63;6280763;22;20414;-75
2022/12/23 08:58:07;;;;;;;4.32;2.00;;;;;;;17.11;63.15;100546.53;6280733;22;20376;-77
2022/12/23 09:00:33;;;;;;;4.95;1.83;;;;;;;17.12;63.02;100537.88;6308127;22;20004;-77
2022/12/23 09:02:59;;;;;;;3.28;1.83;;;;;;;17.12;63.03;100528.31;6280722;22;20006;-76
2022/12/23 09:05:24;;;;;;;4.85;2.00;;;;;;;17.12;62.63;100525.72;6255089;22;20011;-76
2022/12/23 09:07:50;;;;;;;4.35;1.98;;;;;;;17.13;62.80;100523.97;6280802;22;20005;-74
2022/12/23 09:10:15;;;;;;;2.75;1.80;;;;;;;17.15;61.83;100520.47;6255233;22;20010;-76
2022/12/23 09:12:41;;;;;;;4.00;1.55;;;;;;;17.21;61.34;100528.19;6254913;22;20003;-75
2022/12/23 09:15:07;;;;;;;4.55;1.73;;;;;;;17.25;61.20;100519.50;6254983;22;20022;-84
2022/12/23 09:17:32;;;;;;;3.78;1.70;;;;;;;17.27;61.50;100530.72;6275392;22;20091;-91
2022/12/23 09:19:58;;;;;;;4.80;1.42;;;;;;;17.28;61.18;100526.38;6251360;22;20067;-83
2022/12/23 09:22:23;;;;;;;3.97;1.55;;;;;;;17.30;61.38;100516.81;6250582;22;20008;-82
2022/12/23 09:24:49;;;;;;;3.70;1.70;;;;;;;17.34;60.91;100521.09;6225685;22;20018;-87
2022/12/23 09:27:14;;;;;;;7.10;1.70;;;;;;;17.36;61.03;100513.28;6251677;22;20090;-88
2022/12/23 09:29:39;;;;;;;4.70;1.50;;;;;;;17.36;61.03;100506.34;6251172;22;20311;-84
2022/12/23 09:32:05;;;;;;;4.32;1.80;;;;;;;17.43;61.42;100512.31;6250746;22;20006;-90
2022/12/23 09:34:30;;;;;;;6.05;1.80;;;;;;;17.44;61.74;100501.00;6251782;22;20012;-83
2022/12/23 09:36:56;;;;;;;4.63;1.90;;;;;;;17.51;62.10;100488.78;6251596;22;20425;-90
2022/12/23 09:39:22;;;;;;;4.00;2.00;;;;;;;17.52;62.02;100487.91;6251894;22;20428;-89
2022/12/23 09:42:02;;;;;;;7.55;1.98;;;;;;;17.52;62.16;100488.75;6251582;22;20008;-91
2022/12/23 09:44:33;;;;;;;4.97;1.45;;;;;;;17.46;62.89;100481.03;6279480;22;20032;-83
2022/12/23 09:47:02;;;;;;;4.53;1.60;;;;;;;17.42;63.02;100485.44;6277774;22;20011;-89
2022/12/23 09:49:27;;;;;;;5.90;1.88;;;;;;;17.40;63.00;100476.81;6278322;22;20007;-85
2022/12/23 09:51:59;;;;;;;2.42;1.65;;;;;;;17.41;62.82;100477.66;6251227;22;20012;-89
2022/12/23 09:54:54;;;;;;;6.35;2.00;;;;;;;17.40;62.97;100469.00;6277304;22;20004;-91
2022/12/23 09:57:22;;;;;;;3.55;2.00;;;;;;;17.38;62.79;100464.72;6246057;22;20402;-90
2022/12/23 09:59:51;;;;;;;11.15;4.15;;;;;;;17.39;63.08;100467.28;6277934;22;20015;-90
2022/12/23 10:02:45;;;;;;;12.60;4.97;;;;;;;17.38;63.43;100456.91;6277045;22;20061;-90
2022/12/23 10:05:42;;;;;;;9.57;4.15;;;;;;;17.44;63.71;100451.59;6277493;22;20004;-93
2022/12/23 10:08:30;;;;;;;14.40;4.18;;;;;;;17.41;63.58;100457.69;6277320;22;20008;-91
2022/12/23 10:11:00;;;;;;;13.52;4.00;;;;;;;17.41;63.40;100451.66;6277215;22;19996;-84
2022/12/23 10:13:42;;;;;;;7.45;3.30;;;;;;;17.43;64.00;100445.53;6276892;22;20058;-90
2022/12/23 10:16:15;;;;;;;14.05;4.13;;;;;;;17.41;63.63;100442.09;6277005;22;20498;-85
2022/12/23 10:18:49;;;;;;;9.52;3.58;;;;;;;17.40;63.86;100439.53;6276760;22;20090;-88
2022/12/23 10:21:29;;;;;;;10.15;3.38;;;;;;;17.40;63.31;100434.34;6278241;22;20007;-88
2022/12/23 10:23:54;;;;;;;8.88;3.70;;;;;;;17.40;63.70;100431.75;6276589;22;20035;-88
2022/12/23 10:26:28;;;;;;;9.10;3.42;;;;;;;17.39;63.84;100430.84;6251784;22;20008;-92
2022/12/23 10:29:01;;;;;;;8.93;3.22;;;;;;;17.37;63.75;100424.81;6278821;22;20031;-91
2022/12/23 10:31:50;;;;;;;11.68;3.63;;;;;;;17.36;63.53;100422.25;6279327;22;20050;-88
2022/12/23 10:34:31;;;;;;;7.53;3.33;;;;;;;17.35;63.78;100415.31;6279291;22;20008;-89
2022/12/23 10:37:13;;;;;;;9.55;4.10;;;;;;;17.35;63.77;100418.78;6278322;22;20003;-88
2022/12/23 10:39:41;;;;;;;7.53;3.97;;;;;;;17.35;63.42;100415.31;6278112;22;20366;-86
2022/12/23 10:42:24;;;;;;;8.45;4.13;;;;;;;17.33;63.42;100417.94;6278704;22;20010;-87
2022/12/23 10:45:00;;;;;;;10.10;4.27;;;;;;;17.32;63.71;100404.97;6280564;22;19996;-89
2022/12/23 10:47:41;;;;;;;8.38;4.55;;;;;;;17.32;63.41;100404.97;6280796;22;20008;-89
2022/12/23 10:50:27;;;;;;;10.80;4.20;;;;;;;17.31;63.44;100398.94;6279086;22;20007;-86
2022/12/23 10:53:03;;;;;;;8.30;4.40;;;;;;;17.31;63.32;100396.31;6281136;22;20002;-89
2022/12/23 10:55:34;;;;;;;8.43;4.32;;;;;;;17.31;63.21;100395.44;6284004;22;20000;-89
2022/12/23 10:58:06;;;;;;;12.23;4.18;;;;;;;17.30;63.39;100385.94;6301185;22;20023;-88
2022/12/23 11:00:36;;;;;;;9.18;4.13;;;;;;;17.30;63.18;100393.75;6301933;22;19984;-89
2022/12/23 11:03:17;;;;;;;9.88;4.47;;;;;;;17.28;63.18;100388.56;6299664;22;20006;-89
2022/12/23 11:05:44;;;;;;;6.63;3.53;;;;;;;17.27;63.50;100379.91;6287560;22;20415;-88
2022/12/23 11:08:10;;;;;;;5.90;3.72;;;;;;;17.28;62.91;100388.56;6281759;22;20019;-89
2022/12/23 11:10:35;;;;;;;8.13;3.85;;;;;;;17.27;63.14;100382.50;6254833;22;20010;-89
2022/12/23 11:13:00;;;;;;;6.93;3.80;;;;;;;17.27;63.58;100368.66;6254137;22;20031;-89
2022/12/23 11:15:29;;;;;;;7.07;3.78;;;;;;;17.26;63.32;100357.34;6280166;22;20008;-90
2022/12/23 11:17:59;;;;;;;8.25;3.50;;;;;;;17.27;63.28;100351.28;6281631;22;20046;-88
2022/12/23 11:20:25;;;;;;;6.05;3.60;;;;;;;17.27;63.25;100342.63;6284818;22;20036;-90
2022/12/23 11:22:53;;;;;;;7.43;3.80;;;;;;;17.27;63.35;100340.03;6258959;22;20094;-89
2022/12/23 11:25:33;;;;;;;6.25;3.60;;;;;;;17.26;63.00;100338.31;6311537;22;20003;-89
2022/12/23 11:28:10;;;;;;;5.68;3.42;;;;;;;17.25;63.15;100324.44;6284787;22;20380;-89
2022/12/23 11:30:56;;;;;;;7.80;3.63;;;;;;;17.26;63.11;100317.50;6286429;22;20049;-89
2022/12/23 11:33:34;;;;;;;5.55;3.00;;;;;;;17.25;63.08;100331.41;6284419;22;20045;-89
2022/12/23 11:36:01;;;;;;;5.40;3.20;;;;;;;17.25;63.22;100319.25;6310972;22;20053;-89
2022/12/23 11:38:27;;;;;;;5.63;3.25;;;;;;;17.25;63.16;100308.84;6284199;22;20007;-90
2022/12/23 11:40:53;;;;;;;5.32;3.03;;;;;;;17.24;63.14;100304.50;6257761;22;20515;-90
2022/12/23 11:43:19;;;;;;;4.65;2.95;;;;;;;17.24;62.96;100296.72;6232568;22;20066;-87
2022/12/23 11:45:45;;;;;;;5.07;2.95;;;;;;;17.24;63.07;100290.66;6258179;22;20014;-88
2022/12/23 11:48:27;;;;;;;4.32;2.63;;;;;;;17.24;63.19;100282.88;6232824;22;20093;-88
2022/12/23 11:51:01;;;;;;;7.38;2.97;;;;;;;17.24;62.93;100277.66;6283707;22;19999;-88
2022/12/23 11:53:27;;;;;;;6.22;3.00;;;;;;;17.23;63.04;100270.75;6283507;22;20005;-88
2022/12/23 11:55:58;;;;;;;3.53;2.40;;;;;;;17.23;62.95;100266.41;6283265;22;20059;-90
2022/12/23 11:58:24;;;;;;;4.72;2.80;;;;;;;17.23;63.06;100258.59;6312242;22;20132;-88
2022/12/23 12:00:53;;;;;;;4.10;2.40;;;;;;;17.24;62.98;100260.31;6283528;22;20431;-88
2022/12/23 12:03:23;;;;;;;3.65;2.38;;;;;;;17.23;63.05;100258.59;6283423;22;20000;-89
2022/12/23 12:05:54;;;;;;;3.20;2.25;;;;;;;17.24;62.74;100251.66;6283686;22;20053;-87
2022/12/23 12:08:24;;;;;;;4.30;2.50;;;;;;;17.22;62.85;100245.63;6310370;22;20419;-88